sensor_id;sensor_type;location;lat;lon;timestamp;P1;durP1;ratioP1;P2;durP2;ratioP2
41217;SDS011;26950;50.960;7.138;2022-07-23T00:02:13;22.85;;;12.25;;
41217;SDS011;26950;50.960;7.138;2022-07-23T00:04:40;20.40;;;13.05;;
41217;SDS011;26950;50.960;7.138;2022-07-23T00:07:06;22.65;;;13.13;;
41217;SDS011;26950;50.960;7.138;2022-07-23T00:09:32;21.33;;;12.48;;
41217;SDS011;26950;50.960;7.138;2022-07-23T00:11:59;21.75;;;13.00;;
41217;SDS011;26950;50.960;7.138;2022-07-23T00:14:25;19.15;;;12.60;;
41217;SDS011;26950;50.960;7.138;2022-07-23T00:16:53;21.95;;;13.05;;
41217;SDS011;26950;50.960;7.138;2022-07-23T00:19:20;20.08;;;12.88;;
41217;SDS011;26950;50.960;7.138;2022-07-23T00:21:46;22.35;;;13.18;;
41217;SDS011;26950;50.960;7.138;2022-07-23T00:24:13;21.92;;;12.32;;
41217;SDS011;26950;50.960;7.138;2022-07-23T00:26:39;21.27;;;12.43;;
41217;SDS011;26950;50.960;7.138;2022-07-23T00:29:05;19.65;;;12.38;;
41217;SDS011;26950;50.960;7.138;2022-07-23T00:31:32;22.27;;;13.25;;
41217;SDS011;26950;50.960;7.138;2022-07-23T00:34:00;17.55;;;12.70;;
41217;SDS011;26950;50.960;7.138;2022-07-23T00:36:27;18.67;;;12.02;;
41217;SDS011;26950;50.960;7.138;2022-07-23T00:38:53;20.13;;;13.13;;
41217;SDS011;26950;50.960;7.138;2022-07-23T00:41:21;20.70;;;13.40;;
41217;SDS011;26950;50.960;7.138;2022-07-23T00:43:47;22.88;;;13.00;;
41217;SDS011;26950;50.960;7.138;2022-07-23T00:46:18;20.73;;;13.50;;
41217;SDS011;26950;50.960;7.138;2022-07-23T00:48:45;21.77;;;12.50;;
41217;SDS011;26950;50.960;7.138;2022-07-23T00:51:13;17.20;;;12.23;;
41217;SDS011;26950;50.960;7.138;2022-07-23T00:53:41;20.08;;;13.25;;
41217;SDS011;26950;50.960;7.138;2022-07-23T00:56:07;21.05;;;12.75;;
41217;SDS011;26950;50.960;7.138;2022-07-23T00:58:35;22.85;;;12.52;;
41217;SDS011;26950;50.960;7.138;2022-07-23T01:01:01;20.52;;;12.45;;
41217;SDS011;26950;50.960;7.138;2022-07-23T01:03:28;19.17;;;12.85;;
41217;SDS011;26950;50.960;7.138;2022-07-23T01:05:55;19.80;;;12.95;;
41217;SDS011;26950;50.960;7.138;2022-07-23T01:08:23;16.52;;;12.13;;
41217;SDS011;26950;50.960;7.138;2022-07-23T01:10:50;18.75;;;12.00;;
41217;SDS011;26950;50.960;7.138;2022-07-23T01:13:17;19.63;;;11.75;;
41217;SDS011;26950;50.960;7.138;2022-07-23T01:15:43;19.52;;;11.80;;
41217;SDS011;26950;50.960;7.138;2022-07-23T01:18:10;18.00;;;11.57;;
41217;SDS011;26950;50.960;7.138;2022-07-23T01:20:37;18.23;;;11.85;;
41217;SDS011;26950;50.960;7.138;2022-07-23T01:23:05;17.13;;;11.02;;
41217;SDS011;26950;50.960;7.138;2022-07-23T01:25:31;18.92;;;11.88;;
41217;SDS011;26950;50.960;7.138;2022-07-23T01:27:58;16.85;;;10.35;;
41217;SDS011;26950;50.960;7.138;2022-07-23T01:30:24;18.00;;;10.00;;
41217;SDS011;26950;50.960;7.138;2022-07-23T01:32:51;16.55;;;10.80;;
41217;SDS011;26950;50.960;7.138;2022-07-23T01:35:17;20.38;;;10.52;;
41217;SDS011;26950;50.960;7.138;2022-07-23T01:37:44;17.80;;;10.75;;
41217;SDS011;26950;50.960;7.138;2022-07-23T01:40:12;15.88;;;10.73;;
41217;SDS011;26950;50.960;7.138;2022-07-23T01:42:38;17.90;;;11.38;;
41217;SDS011;26950;50.960;7.138;2022-07-23T01:45:05;17.77;;;10.90;;
41217;SDS011;26950;50.960;7.138;2022-07-23T01:47:32;15.88;;;10.68;;
41217;SDS011;26950;50.960;7.138;2022-07-23T01:49:59;18.23;;;11.85;;
41217;SDS011;26950;50.960;7.138;2022-07-23T01:52:25;20.63;;;12.10;;
41217;SDS011;26950;50.960;7.138;2022-07-23T01:54:51;19.77;;;12.10;;
41217;SDS011;26950;50.960;7.138;2022-07-23T01:57:19;17.67;;;10.85;;
41217;SDS011;26950;50.960;7.138;2022-07-23T01:59:46;19.10;;;11.65;;
41217;SDS011;26950;50.960;7.138;2022-07-23T02:02:12;18.88;;;11.45;;
41217;SDS011;26950;50.960;7.138;2022-07-23T02:04:39;16.25;;;10.63;;
41217;SDS011;26950;50.960;7.138;2022-07-23T02:07:05;20.60;;;11.68;;
41217;SDS011;26950;50.960;7.138;2022-07-23T02:09:32;24.83;;;13.15;;
41217;SDS011;26950;50.960;7.138;2022-07-23T02:11:58;18.17;;;11.90;;
41217;SDS011;26950;50.960;7.138;2022-07-23T02:14:26;18.65;;;11.75;;
41217;SDS011;26950;50.960;7.138;2022-07-23T02:16:53;17.40;;;11.18;;
41217;SDS011;26950;50.960;7.138;2022-07-23T02:19:19;21.80;;;11.93;;
41217;SDS011;26950;50.960;7.138;2022-07-23T02:21:46;16.63;;;11.68;;
41217;SDS011;26950;50.960;7.138;2022-07-23T02:24:12;21.95;;;12.27;;
41217;SDS011;26950;50.960;7.138;2022-07-23T02:26:39;16.15;;;10.77;;
41217;SDS011;26950;50.960;7.138;2022-07-23T02:29:05;18.50;;;11.93;;
41217;SDS011;26950;50.960;7.138;2022-07-23T02:31:33;18.48;;;11.60;;
41217;SDS011;26950;50.960;7.138;2022-07-23T02:34:00;17.83;;;11.45;;
41217;SDS011;26950;50.960;7.138;2022-07-23T02:36:27;19.92;;;11.95;;
41217;SDS011;26950;50.960;7.138;2022-07-23T02:38:54;19.42;;;11.45;;
41217;SDS011;26950;50.960;7.138;2022-07-23T02:41:20;18.85;;;11.52;;
41217;SDS011;26950;50.960;7.138;2022-07-23T02:43:47;17.98;;;11.30;;
41217;SDS011;26950;50.960;7.138;2022-07-23T02:46:13;21.70;;;12.38;;
41217;SDS011;26950;50.960;7.138;2022-07-23T02:48:41;20.65;;;12.98;;
41217;SDS011;26950;50.960;7.138;2022-07-23T02:51:07;16.25;;;10.90;;
41217;SDS011;26950;50.960;7.138;2022-07-23T02:53:34;20.35;;;10.73;;
41217;SDS011;26950;50.960;7.138;2022-07-23T02:56:00;17.92;;;11.90;;
41217;SDS011;26950;50.960;7.138;2022-07-23T02:58:27;17.73;;;11.52;;
41217;SDS011;26950;50.960;7.138;2022-07-23T03:00:53;19.33;;;12.27;;
41217;SDS011;26950;50.960;7.138;2022-07-23T03:03:20;18.77;;;11.38;;
41217;SDS011;26950;50.960;7.138;2022-07-23T03:05:48;18.45;;;11.27;;
41217;SDS011;26950;50.960;7.138;2022-07-23T03:08:14;17.67;;;10.82;;
41217;SDS011;26950;50.960;7.138;2022-07-23T03:10:40;17.85;;;11.10;;
41217;SDS011;26950;50.960;7.138;2022-07-23T03:13:07;18.05;;;10.70;;
41217;SDS011;26950;50.960;7.138;2022-07-23T03:15:33;17.55;;;11.00;;
41217;SDS011;26950;50.960;7.138;2022-07-23T03:18:00;18.52;;;11.32;;
41217;SDS011;26950;50.960;7.138;2022-07-23T03:20:26;16.90;;;10.85;;
41217;SDS011;26950;50.960;7.138;2022-07-23T03:22:54;15.30;;;10.15;;
41217;SDS011;26950;50.960;7.138;2022-07-23T03:25:21;19.15;;;10.43;;
41217;SDS011;26950;50.960;7.138;2022-07-23T03:27:47;15.90;;;10.40;;
41217;SDS011;26950;50.960;7.138;2022-07-23T03:30:14;17.13;;;11.13;;
41217;SDS011;26950;50.960;7.138;2022-07-23T03:32:40;19.15;;;10.90;;
41217;SDS011;26950;50.960;7.138;2022-07-23T03:35:07;16.15;;;10.02;;
41217;SDS011;26950;50.960;7.138;2022-07-23T03:37:34;17.13;;;10.50;;
41217;SDS011;26950;50.960;7.138;2022-07-23T03:40:02;16.83;;;10.00;;
41217;SDS011;26950;50.960;7.138;2022-07-23T03:42:29;14.27;;;9.75;;
41217;SDS011;26950;50.960;7.138;2022-07-23T03:44:56;14.82;;;10.32;;
41217;SDS011;26950;50.960;7.138;2022-07-23T03:47:22;16.92;;;10.82;;
41217;SDS011;26950;50.960;7.138;2022-07-23T03:49:49;16.63;;;9.88;;
41217;SDS011;26950;50.960;7.138;2022-07-23T03:52:15;18.48;;;10.63;;
41217;SDS011;26950;50.960;7.138;2022-07-23T03:54:42;13.93;;;9.55;;
41217;SDS011;26950;50.960;7.138;2022-07-23T03:57:10;16.00;;;10.52;;
41217;SDS011;26950;50.960;7.138;2022-07-23T03:59:36;21.27;;;11.13;;
41217;SDS011;26950;50.960;7.138;2022-07-23T04:02:02;18.17;;;10.02;;
41217;SDS011;26950;50.960;7.138;2022-07-23T04:04:29;15.77;;;9.90;;
41217;SDS011;26950;50.960;7.138;2022-07-23T04:06:55;16.15;;;11.07;;
41217;SDS011;26950;50.960;7.138;2022-07-23T04:09:22;19.67;;;11.50;;
41217;SDS011;26950;50.960;7.138;2022-07-23T04:11:48;18.65;;;10.70;;
41217;SDS011;26950;50.960;7.138;2022-07-23T04:14:16;16.92;;;10.65;;
41217;SDS011;26950;50.960;7.138;2022-07-23T04:16:42;16.58;;;10.05;;
41217;SDS011;26950;50.960;7.138;2022-07-23T04:19:09;18.80;;;10.73;;
41217;SDS011;26950;50.960;7.138;2022-07-23T04:21:35;16.48;;;10.93;;
41217;SDS011;26950;50.960;7.138;2022-07-23T04:24:02;22.20;;;12.15;;
41217;SDS011;26950;50.960;7.138;2022-07-23T04:26:29;20.65;;;12.40;;
41217;SDS011;26950;50.960;7.138;2022-07-23T04:28:56;19.55;;;12.27;;
41217;SDS011;26950;50.960;7.138;2022-07-23T04:31:24;18.90;;;12.13;;
41217;SDS011;26950;50.960;7.138;2022-07-23T04:33:50;19.48;;;11.57;;
41217;SDS011;26950;50.960;7.138;2022-07-23T04:36:17;17.67;;;10.95;;
41217;SDS011;26950;50.960;7.138;2022-07-23T04:38:43;17.50;;;11.85;;
41217;SDS011;26950;50.960;7.138;2022-07-23T04:41:10;20.73;;;11.95;;
41217;SDS011;26950;50.960;7.138;2022-07-23T04:43:36;19.02;;;11.05;;
41217;SDS011;26950;50.960;7.138;2022-07-23T04:46:03;17.63;;;11.48;;
41217;SDS011;26950;50.960;7.138;2022-07-23T04:48:31;16.70;;;11.05;;
41217;SDS011;26950;50.960;7.138;2022-07-23T04:50:57;19.13;;;10.90;;
41217;SDS011;26950;50.960;7.138;2022-07-23T04:53:24;19.08;;;11.80;;
41217;SDS011;26950;50.960;7.138;2022-07-23T04:55:50;18.98;;;12.38;;
41217;SDS011;26950;50.960;7.138;2022-07-23T04:58:17;19.88;;;12.10;;
41217;SDS011;26950;50.960;7.138;2022-07-23T05:00:43;18.80;;;11.20;;
41217;SDS011;26950;50.960;7.138;2022-07-23T05:03:09;22.33;;;12.40;;
41217;SDS011;26950;50.960;7.138;2022-07-23T05:05:37;21.77;;;12.18;;
41217;SDS011;26950;50.960;7.138;2022-07-23T05:08:04;18.23;;;11.75;;
41217;SDS011;26950;50.960;7.138;2022-07-23T05:10:31;23.45;;;13.32;;
41217;SDS011;26950;50.960;7.138;2022-07-23T05:12:57;21.75;;;13.05;;
41217;SDS011;26950;50.960;7.138;2022-07-23T05:15:24;19.77;;;12.20;;
41217;SDS011;26950;50.960;7.138;2022-07-23T05:17:50;19.70;;;12.30;;
41217;SDS011;26950;50.960;7.138;2022-07-23T05:20:17;23.25;;;13.70;;
41217;SDS011;26950;50.960;7.138;2022-07-23T05:22:44;21.83;;;12.88;;
41217;SDS011;26950;50.960;7.138;2022-07-23T05:25:11;18.70;;;12.23;;
41217;SDS011;26950;50.960;7.138;2022-07-23T05:27:37;19.10;;;12.35;;
41217;SDS011;26950;50.960;7.138;2022-07-23T05:30:04;21.95;;;13.00;;
41217;SDS011;26950;50.960;7.138;2022-07-23T05:32:31;24.45;;;13.20;;
41217;SDS011;26950;50.960;7.138;2022-07-23T05:34:58;22.23;;;13.05;;
41217;SDS011;26950;50.960;7.138;2022-07-23T05:37:25;20.23;;;12.75;;
41217;SDS011;26950;50.960;7.138;2022-07-23T05:39:52;21.17;;;12.65;;
41217;SDS011;26950;50.960;7.138;2022-07-23T05:42:19;18.70;;;11.75;;
41217;SDS011;26950;50.960;7.138;2022-07-23T05:44:45;21.38;;;11.70;;
41217;SDS011;26950;50.960;7.138;2022-07-23T05:47:12;21.95;;;12.52;;
41217;SDS011;26950;50.960;7.138;2022-07-23T05:49:38;18.75;;;11.80;;
41217;SDS011;26950;50.960;7.138;2022-07-23T05:52:05;20.20;;;11.68;;
41217;SDS011;26950;50.960;7.138;2022-07-23T05:54:33;20.55;;;11.70;;
41217;SDS011;26950;50.960;7.138;2022-07-23T05:57:01;19.27;;;11.23;;
41217;SDS011;26950;50.960;7.138;2022-07-23T05:59:28;18.48;;;11.07;;
41217;SDS011;26950;50.960;7.138;2022-07-23T06:01:54;19.42;;;11.77;;
41217;SDS011;26950;50.960;7.138;2022-07-23T06:04:21;18.75;;;11.07;;
41217;SDS011;26950;50.960;7.138;2022-07-23T06:06:47;19.48;;;11.73;;
41217;SDS011;26950;50.960;7.138;2022-07-23T06:09:14;18.95;;;11.13;;
41217;SDS011;26950;50.960;7.138;2022-07-23T06:11:40;15.60;;;9.93;;
41217;SDS011;26950;50.960;7.138;2022-07-23T06:14:08;18.67;;;10.68;;
41217;SDS011;26950;50.960;7.138;2022-07-23T06:16:35;16.88;;;10.07;;
41217;SDS011;26950;50.960;7.138;2022-07-23T06:19:01;18.05;;;10.35;;
41217;SDS011;26950;50.960;7.138;2022-07-23T06:21:28;15.75;;;10.35;;
41217;SDS011;26950;50.960;7.138;2022-07-23T06:23:54;17.48;;;10.57;;
41217;SDS011;26950;50.960;7.138;2022-07-23T06:26:21;18.90;;;10.18;;
41217;SDS011;26950;50.960;7.138;2022-07-23T06:28:47;17.17;;;9.77;;
41217;SDS011;26950;50.960;7.138;2022-07-23T06:31:15;16.90;;;10.20;;
41217;SDS011;26950;50.960;7.138;2022-07-23T06:33:41;17.52;;;9.65;;
41217;SDS011;26950;50.960;7.138;2022-07-23T06:36:08;16.23;;;9.82;;
41217;SDS011;26950;50.960;7.138;2022-07-23T06:38:35;14.25;;;8.82;;
41217;SDS011;26950;50.960;7.138;2022-07-23T06:41:01;15.77;;;8.98;;
41217;SDS011;26950;50.960;7.138;2022-07-23T06:43:28;15.85;;;8.65;;
41217;SDS011;26950;50.960;7.138;2022-07-23T06:45:56;15.40;;;9.10;;
41217;SDS011;26950;50.960;7.138;2022-07-23T06:48:24;17.42;;;8.52;;
41217;SDS011;26950;50.960;7.138;2022-07-23T06:50:50;13.80;;;8.20;;
41217;SDS011;26950;50.960;7.138;2022-07-23T06:53:17;15.60;;;7.80;;
41217;SDS011;26950;50.960;7.138;2022-07-23T06:55:44;11.32;;;6.90;;
41217;SDS011;26950;50.960;7.138;2022-07-23T06:58:10;12.98;;;7.93;;
41217;SDS011;26950;50.960;7.138;2022-07-23T07:00:38;14.05;;;8.10;;
41217;SDS011;26950;50.960;7.138;2022-07-23T07:03:05;12.73;;;7.60;;
41217;SDS011;26950;50.960;7.138;2022-07-23T07:05:33;12.50;;;7.57;;
41217;SDS011;26950;50.960;7.138;2022-07-23T07:07:59;16.13;;;8.02;;
41217;SDS011;26950;50.960;7.138;2022-07-23T07:10:26;12.32;;;8.13;;
41217;SDS011;26950;50.960;7.138;2022-07-23T07:12:52;13.30;;;7.90;;
41217;SDS011;26950;50.960;7.138;2022-07-23T07:15:18;12.05;;;7.68;;
41217;SDS011;26950;50.960;7.138;2022-07-23T07:17:45;13.88;;;8.20;;
41217;SDS011;26950;50.960;7.138;2022-07-23T07:20:12;13.95;;;7.60;;
41217;SDS011;26950;50.960;7.138;2022-07-23T07:22:40;14.85;;;8.05;;
41217;SDS011;26950;50.960;7.138;2022-07-23T07:25:07;12.25;;;7.70;;
41217;SDS011;26950;50.960;7.138;2022-07-23T07:27:34;11.45;;;7.20;;
41217;SDS011;26950;50.960;7.138;2022-07-23T07:30:01;17.42;;;7.78;;
41217;SDS011;26950;50.960;7.138;2022-07-23T07:32:27;11.40;;;6.53;;
41217;SDS011;26950;50.960;7.138;2022-07-23T07:34:54;12.40;;;6.78;;
41217;SDS011;26950;50.960;7.138;2022-07-23T07:37:21;12.70;;;7.05;;
41217;SDS011;26950;50.960;7.138;2022-07-23T07:39:48;12.32;;;7.40;;
41217;SDS011;26950;50.960;7.138;2022-07-23T07:42:15;11.20;;;7.18;;
41217;SDS011;26950;50.960;7.138;2022-07-23T07:44:41;11.55;;;6.93;;
41217;SDS011;26950;50.960;7.138;2022-07-23T07:47:08;11.40;;;6.65;;
41217;SDS011;26950;50.960;7.138;2022-07-23T07:49:34;10.80;;;7.15;;
41217;SDS011;26950;50.960;7.138;2022-07-23T07:52:01;13.35;;;7.03;;
41217;SDS011;26950;50.960;7.138;2022-07-23T07:54:27;11.48;;;6.85;;
41217;SDS011;26950;50.960;7.138;2022-07-23T07:56:55;11.85;;;5.80;;
41217;SDS011;26950;50.960;7.138;2022-07-23T07:59:21;10.75;;;5.60;;
41217;SDS011;26950;50.960;7.138;2022-07-23T08:01:48;13.23;;;6.78;;
41217;SDS011;26950;50.960;7.138;2022-07-23T08:04:14;8.63;;;5.78;;
41217;SDS011;26950;50.960;7.138;2022-07-23T08:06:41;11.65;;;7.13;;
41217;SDS011;26950;50.960;7.138;2022-07-23T08:09:07;12.68;;;7.55;;
41217;SDS011;26950;50.960;7.138;2022-07-23T08:11:34;11.75;;;5.93;;
41217;SDS011;26950;50.960;7.138;2022-07-23T08:14:02;10.13;;;5.75;;
41217;SDS011;26950;50.960;7.138;2022-07-23T08:16:28;14.02;;;6.55;;
41217;SDS011;26950;50.960;7.138;2022-07-23T08:18:55;11.45;;;6.78;;
41217;SDS011;26950;50.960;7.138;2022-07-23T08:21:21;10.90;;;6.28;;
41217;SDS011;26950;50.960;7.138;2022-07-23T08:23:48;15.35;;;6.90;;
41217;SDS011;26950;50.960;7.138;2022-07-23T08:26:14;13.85;;;7.95;;
41217;SDS011;26950;50.960;7.138;2022-07-23T08:28:41;10.07;;;6.40;;
41217;SDS011;26950;50.960;7.138;2022-07-23T08:31:08;12.93;;;6.90;;
41217;SDS011;26950;50.960;7.138;2022-07-23T08:33:36;10.90;;;6.90;;
41217;SDS011;26950;50.960;7.138;2022-07-23T08:36:03;12.98;;;6.13;;
41217;SDS011;26950;50.960;7.138;2022-07-23T08:38:30;9.93;;;5.10;;
41217;SDS011;26950;50.960;7.138;2022-07-23T08:40:57;8.80;;;5.70;;
41217;SDS011;26950;50.960;7.138;2022-07-23T08:43:24;9.55;;;5.93;;
41217;SDS011;26950;50.960;7.138;2022-07-23T08:45:54;11.95;;;6.72;;
41217;SDS011;26950;50.960;7.138;2022-07-23T08:48:24;11.48;;;6.97;;
41217;SDS011;26950;50.960;7.138;2022-07-23T08:50:52;11.25;;;6.15;;
41217;SDS011;26950;50.960;7.138;2022-07-23T08:53:20;10.38;;;5.60;;
41217;SDS011;26950;50.960;7.138;2022-07-23T08:55:49;11.48;;;5.90;;
41217;SDS011;26950;50.960;7.138;2022-07-23T08:58:17;8.90;;;4.70;;
41217;SDS011;26950;50.960;7.138;2022-07-23T09:00:45;8.35;;;5.00;;
41217;SDS011;26950;50.960;7.138;2022-07-23T09:03:14;10.10;;;5.05;;
41217;SDS011;26950;50.960;7.138;2022-07-23T09:05:44;7.85;;;4.47;;
41217;SDS011;26950;50.960;7.138;2022-07-23T09:08:11;9.35;;;5.18;;
41217;SDS011;26950;50.960;7.138;2022-07-23T09:10:49;9.45;;;6.15;;
41217;SDS011;26950;50.960;7.138;2022-07-23T09:13:33;8.43;;;5.50;;
41217;SDS011;26950;50.960;7.138;2022-07-23T09:16:02;10.93;;;6.10;;
41217;SDS011;26950;50.960;7.138;2022-07-23T09:18:36;9.43;;;5.60;;
41217;SDS011;26950;50.960;7.138;2022-07-23T09:21:06;9.20;;;5.60;;
41217;SDS011;26950;50.960;7.138;2022-07-23T09:23:37;10.07;;;6.35;;
41217;SDS011;26950;50.960;7.138;2022-07-23T09:26:16;10.57;;;6.25;;
41217;SDS011;26950;50.960;7.138;2022-07-23T09:28:52;13.65;;;5.70;;
41217;SDS011;26950;50.960;7.138;2022-07-23T09:31:21;7.50;;;4.82;;
41217;SDS011;26950;50.960;7.138;2022-07-23T09:33:49;8.43;;;5.70;;
41217;SDS011;26950;50.960;7.138;2022-07-23T09:36:16;9.77;;;5.28;;
41217;SDS011;26950;50.960;7.138;2022-07-23T09:38:53;7.68;;;4.63;;
41217;SDS011;26950;50.960;7.138;2022-07-23T09:41:20;9.85;;;4.88;;
41217;SDS011;26950;50.960;7.138;2022-07-23T09:43:46;10.27;;;5.22;;
41217;SDS011;26950;50.960;7.138;2022-07-23T09:46:16;11.10;;;5.60;;
41217;SDS011;26950;50.960;7.138;2022-07-23T09:48:43;10.25;;;4.90;;
41217;SDS011;26950;50.960;7.138;2022-07-23T09:51:10;7.47;;;4.35;;
41217;SDS011;26950;50.960;7.138;2022-07-23T09:53:38;8.05;;;4.30;;
41217;SDS011;26950;50.960;7.138;2022-07-23T09:56:04;7.95;;;4.13;;
41217;SDS011;26950;50.960;7.138;2022-07-23T09:58:33;6.55;;;3.72;;
41217;SDS011;26950;50.960;7.138;2022-07-23T10:01:08;6.07;;;4.00;;
41217;SDS011;26950;50.960;7.138;2022-07-23T10:03:35;9.18;;;4.78;;
41217;SDS011;26950;50.960;7.138;2022-07-23T10:06:02;7.97;;;4.53;;
41217;SDS011;26950;50.960;7.138;2022-07-23T10:08:29;10.18;;;5.25;;
41217;SDS011;26950;50.960;7.138;2022-07-23T10:10:59;8.25;;;4.28;;
41217;SDS011;26950;50.960;7.138;2022-07-23T10:13:28;7.32;;;4.10;;
41217;SDS011;26950;50.960;7.138;2022-07-23T10:16:11;7.55;;;3.92;;
41217;SDS011;26950;50.960;7.138;2022-07-23T10:18:38;8.57;;;4.82;;
41217;SDS011;26950;50.960;7.138;2022-07-23T10:21:06;6.53;;;4.15;;
41217;SDS011;26950;50.960;7.138;2022-07-23T10:23:35;6.95;;;3.50;;
41217;SDS011;26950;50.960;7.138;2022-07-23T10:26:10;6.45;;;3.30;;
41217;SDS011;26950;50.960;7.138;2022-07-23T10:28:51;6.80;;;3.92;;
41217;SDS011;26950;50.960;7.138;2022-07-23T10:31:31;6.07;;;4.05;;
41217;SDS011;26950;50.960;7.138;2022-07-23T10:34:07;8.70;;;4.40;;
41217;SDS011;26950;50.960;7.138;2022-07-23T10:36:42;7.03;;;3.63;;
41217;SDS011;26950;50.960;7.138;2022-07-23T10:39:17;8.05;;;4.65;;
41217;SDS011;26950;50.960;7.138;2022-07-23T10:41:49;7.68;;;3.80;;
41217;SDS011;26950;50.960;7.138;2022-07-23T10:44:17;5.50;;;3.90;;
41217;SDS011;26950;50.960;7.138;2022-07-23T10:46:53;6.35;;;3.55;;
41217;SDS011;26950;50.960;7.138;2022-07-23T10:49:27;5.97;;;3.95;;
41217;SDS011;26950;50.960;7.138;2022-07-23T10:54:49;4.40;;;3.42;;
41217;SDS011;26950;50.960;7.138;2022-07-23T10:57:18;4.57;;;3.00;;
41217;SDS011;26950;50.960;7.138;2022-07-23T11:02:43;6.43;;;3.80;;
41217;SDS011;26950;50.960;7.138;2022-07-23T11:05:12;4.88;;;3.40;;
41217;SDS011;26950;50.960;7.138;2022-07-23T11:10:40;6.10;;;4.00;;
41217;SDS011;26950;50.960;7.138;2022-07-23T11:16:06;3.50;;;3.05;;
41217;SDS011;26950;50.960;7.138;2022-07-23T11:19:02;5.47;;;3.70;;
41217;SDS011;26950;50.960;7.138;2022-07-23T11:21:46;5.55;;;3.67;;
41217;SDS011;26950;50.960;7.138;2022-07-23T11:24:14;4.85;;;3.47;;
41217;SDS011;26950;50.960;7.138;2022-07-23T11:26:43;4.55;;;3.70;;
41217;SDS011;26950;50.960;7.138;2022-07-23T11:32:24;5.20;;;3.45;;
41217;SDS011;26950;50.960;7.138;2022-07-23T11:35:18;4.13;;;3.20;;
41217;SDS011;26950;50.960;7.138;2022-07-23T11:37:46;3.25;;;2.55;;
41217;SDS011;26950;50.960;7.138;2022-07-23T11:40:15;5.53;;;2.80;;
41217;SDS011;26950;50.960;7.138;2022-07-23T11:42:50;7.13;;;3.60;;
41217;SDS011;26950;50.960;7.138;2022-07-23T11:45:20;4.88;;;3.83;;
41217;SDS011;26950;50.960;7.138;2022-07-23T11:47:46;4.05;;;3.30;;
41217;SDS011;26950;50.960;7.138;2022-07-23T11:50:13;5.15;;;3.95;;
41217;SDS011;26950;50.960;7.138;2022-07-23T11:52:39;5.93;;;3.60;;
41217;SDS011;26950;50.960;7.138;2022-07-23T11:55:06;5.35;;;4.10;;
41217;SDS011;26950;50.960;7.138;2022-07-23T11:57:36;6.28;;;3.88;;
41217;SDS011;26950;50.960;7.138;2022-07-23T12:00:05;5.35;;;3.85;;
41217;SDS011;26950;50.960;7.138;2022-07-23T12:02:36;6.68;;;3.90;;
41217;SDS011;26950;50.960;7.138;2022-07-23T12:05:03;6.72;;;3.92;;
41217;SDS011;26950;50.960;7.138;2022-07-23T12:07:31;5.25;;;4.05;;
41217;SDS011;26950;50.960;7.138;2022-07-23T12:10:00;5.88;;;3.67;;
41217;SDS011;26950;50.960;7.138;2022-07-23T12:12:37;7.75;;;4.30;;
41217;SDS011;26950;50.960;7.138;2022-07-23T12:15:06;5.15;;;3.75;;
41217;SDS011;26950;50.960;7.138;2022-07-23T12:17:36;6.47;;;4.15;;
41217;SDS011;26950;50.960;7.138;2022-07-23T12:20:05;5.82;;;4.15;;
41217;SDS011;26950;50.960;7.138;2022-07-23T12:22:34;5.53;;;4.30;;
41217;SDS011;26950;50.960;7.138;2022-07-23T12:25:03;6.72;;;4.10;;
41217;SDS011;26950;50.960;7.138;2022-07-23T12:27:32;6.00;;;4.22;;
41217;SDS011;26950;50.960;7.138;2022-07-23T12:30:14;6.93;;;4.30;;
41217;SDS011;26950;50.960;7.138;2022-07-23T12:32:44;6.80;;;4.90;;
41217;SDS011;26950;50.960;7.138;2022-07-23T12:35:11;4.75;;;4.07;;
41217;SDS011;26950;50.960;7.138;2022-07-23T12:37:39;6.28;;;4.22;;
41217;SDS011;26950;50.960;7.138;2022-07-23T12:40:20;5.88;;;4.30;;
41217;SDS011;26950;50.960;7.138;2022-07-23T12:42:49;6.60;;;4.05;;
41217;SDS011;26950;50.960;7.138;2022-07-23T12:45:17;8.68;;;4.45;;
41217;SDS011;26950;50.960;7.138;2022-07-23T12:47:52;5.32;;;4.47;;
41217;SDS011;26950;50.960;7.138;2022-07-23T12:50:30;6.95;;;5.07;;
41217;SDS011;26950;50.960;7.138;2022-07-23T12:53:08;6.80;;;5.15;;
41217;SDS011;26950;50.960;7.138;2022-07-23T12:55:37;9.65;;;5.53;;
41217;SDS011;26950;50.960;7.138;2022-07-23T12:58:05;6.40;;;5.22;;
41217;SDS011;26950;50.960;7.138;2022-07-23T13:00:48;5.90;;;5.07;;
41217;SDS011;26950;50.960;7.138;2022-07-23T13:03:28;7.10;;;4.78;;
41217;SDS011;26950;50.960;7.138;2022-07-23T13:05:56;6.05;;;4.78;;
41217;SDS011;26950;50.960;7.138;2022-07-23T13:08:24;7.32;;;5.15;;
41217;SDS011;26950;50.960;7.138;2022-07-23T13:10:52;6.25;;;4.85;;
41217;SDS011;26950;50.960;7.138;2022-07-23T13:13:20;9.23;;;5.63;;
41217;SDS011;26950;50.960;7.138;2022-07-23T13:15:47;6.78;;;4.97;;
41217;SDS011;26950;50.960;7.138;2022-07-23T13:18:14;6.22;;;4.70;;
41217;SDS011;26950;50.960;7.138;2022-07-23T13:20:43;7.90;;;5.00;;
41217;SDS011;26950;50.960;7.138;2022-07-23T13:23:10;7.97;;;4.80;;
41217;SDS011;26950;50.960;7.138;2022-07-23T13:25:36;6.65;;;4.28;;
41217;SDS011;26950;50.960;7.138;2022-07-23T13:28:03;5.95;;;3.92;;
41217;SDS011;26950;50.960;7.138;2022-07-23T13:30:30;8.90;;;4.57;;
41217;SDS011;26950;50.960;7.138;2022-07-23T13:32:57;7.47;;;4.47;;
41217;SDS011;26950;50.960;7.138;2022-07-23T13:35:23;5.82;;;4.40;;
41217;SDS011;26950;50.960;7.138;2022-07-23T13:37:51;7.47;;;4.28;;
41217;SDS011;26950;50.960;7.138;2022-07-23T13:40:18;7.30;;;4.22;;
41217;SDS011;26950;50.960;7.138;2022-07-23T13:42:45;7.78;;;4.43;;
41217;SDS011;26950;50.960;7.138;2022-07-23T13:45:11;7.18;;;4.28;;
41217;SDS011;26950;50.960;7.138;2022-07-23T13:47:38;7.45;;;4.20;;
41217;SDS011;26950;50.960;7.138;2022-07-23T13:50:05;5.35;;;4.00;;
41217;SDS011;26950;50.960;7.138;2022-07-23T13:52:32;5.28;;;4.18;;
41217;SDS011;26950;50.960;7.138;2022-07-23T13:55:00;6.38;;;4.38;;
41217;SDS011;26950;50.960;7.138;2022-07-23T13:57:27;5.40;;;4.47;;
41217;SDS011;26950;50.960;7.138;2022-07-23T13:59:53;7.13;;;5.00;;
41217;SDS011;26950;50.960;7.138;2022-07-23T14:02:20;7.63;;;4.85;;
41217;SDS011;26950;50.960;7.138;2022-07-23T14:04:46;5.90;;;4.18;;
41217;SDS011;26950;50.960;7.138;2022-07-23T14:07:13;6.47;;;4.63;;
41217;SDS011;26950;50.960;7.138;2022-07-23T14:09:40;5.80;;;4.25;;
41217;SDS011;26950;50.960;7.138;2022-07-23T14:12:08;6.95;;;4.55;;
41217;SDS011;26950;50.960;7.138;2022-07-23T14:14:35;6.50;;;4.53;;
41217;SDS011;26950;50.960;7.138;2022-07-23T14:17:02;8.63;;;4.97;;
41217;SDS011;26950;50.960;7.138;2022-07-23T14:19:28;7.05;;;4.90;;
41217;SDS011;26950;50.960;7.138;2022-07-23T14:21:55;5.68;;;4.32;;
41217;SDS011;26950;50.960;7.138;2022-07-23T14:24:21;9.20;;;4.60;;
41217;SDS011;26950;50.960;7.138;2022-07-23T14:26:48;7.28;;;4.40;;
41217;SDS011;26950;50.960;7.138;2022-07-23T14:29:16;7.88;;;4.30;;
41217;SDS011;26950;50.960;7.138;2022-07-23T14:31:42;6.53;;;4.25;;
41217;SDS011;26950;50.960;7.138;2022-07-23T14:34:09;7.65;;;4.00;;
41217;SDS011;26950;50.960;7.138;2022-07-23T14:36:36;6.55;;;3.85;;
41217;SDS011;26950;50.960;7.138;2022-07-23T14:39:03;6.95;;;4.28;;
41217;SDS011;26950;50.960;7.138;2022-07-23T14:41:30;5.68;;;3.75;;
41217;SDS011;26950;50.960;7.138;2022-07-23T14:43:56;5.97;;;3.85;;
41217;SDS011;26950;50.960;7.138;2022-07-23T14:46:24;7.22;;;3.88;;
41217;SDS011;26950;50.960;7.138;2022-07-23T14:48:50;6.50;;;4.20;;
41217;SDS011;26950;50.960;7.138;2022-07-23T14:51:17;6.13;;;3.33;;
41217;SDS011;26950;50.960;7.138;2022-07-23T14:53:43;5.38;;;3.30;;